Amberg, Wisconsin
Current Conditions -  °F | °C
As of 1:54 AM on Saturday 25 Oct 2014 (Local Time) from KIMT Reporting Station
Clear Clear  
Wind Chill: 54°   Ceiling: Unl
Heat Index: 54°   Visibility: 10mi
Dew Point: 49°   Wind: 10mph
Humidity: 83%   Direction: 260°W
Pressure: 29.74"   Gusts: NA
Location:  45.5°N, 87.99°W
Report Text: KIMT 250654Z AUTO 26009KT 10SM CLR 12/09 A2974 RMK AO2 SLP073 T01220094
Loading
Personal Weather Stations






























Interactive Weather Map
Tropical Storm Tracking
New forecast layout! Learn more

10-Day Weather Forecast

Advertisements
Track Severe Weather on mobile